createdAt,value
2019-05-02T00:00:09.296Z,77.4502
2019-05-02T00:01:12.304Z,77.5265
2019-05-02T00:02:15.338Z,77.5738
2019-05-02T00:03:18.310Z,77.4685
2019-05-02T00:04:21.359Z,77.4990
2019-05-02T00:05:27.393Z,77.7188
2019-05-02T00:06:32.280Z,78.2864
2019-05-02T00:07:34.372Z,78.8006
2019-05-02T00:08:37.281Z,79.0341
2019-05-02T00:09:47.367Z,79.0600
2019-05-02T00:10:48.332Z,79.1989
2019-05-02T00:11:58.609Z,79.3545
2019-05-02T00:12:59.374Z,79.4263
2019-05-02T00:14:04.279Z,80.0275
2019-05-02T00:15:07.298Z,79.6094
2019-05-02T00:16:14.025Z,79.9634
2019-05-02T00:17:20.435Z,80.1953
2019-05-02T00:18:26.333Z,80.3006
2019-05-02T00:19:29.292Z,80.3891
2019-05-02T00:20:31.291Z,80.3464
2019-05-02T00:21:38.275Z,80.6546
2019-05-02T00:22:42.300Z,80.8133
2019-05-02T00:23:45.315Z,80.5768
2019-05-02T00:24:48.299Z,80.4883
2019-05-02T00:25:52.681Z,80.3143
2019-05-02T00:27:01.368Z,81.1429
2019-05-02T00:28:07.795Z,81.3672
2019-05-02T00:29:13.340Z,81.4923
2019-05-02T00:30:16.312Z,81.6327
2019-05-02T00:31:19.289Z,81.8997
2019-05-02T00:32:23.621Z,81.9257
2019-05-02T00:33:29.139Z,81.8082
2019-05-02T00:34:34.314Z,82.1927
2019-05-02T00:35:40.887Z,82.4445
2019-05-02T00:36:45.286Z,82.2736
2019-05-02T00:37:48.282Z,81.9898
2019-05-02T00:38:51.325Z,82.0859
2019-05-02T00:39:54.289Z,82.5177
2019-05-02T00:41:01.731Z,82.5727
2019-05-02T00:42:12.339Z,82.5727
2019-05-02T00:43:13.294Z,82.5269
2019-05-02T00:44:16.299Z,82.3835
2019-05-02T00:45:23.945Z,82.6123
2019-05-02T00:46:30.355Z,82.4933
2019-05-02T00:47:35.336Z,82.6688
2019-05-02T00:48:38.297Z,82.7085
2019-05-02T00:49:41.343Z,82.8870
2019-05-02T00:50:45.264Z,83.0808
2019-05-02T00:51:52.289Z,83.1174
2019-05-02T00:52:55.304Z,83.3692
2019-05-02T00:53:58.292Z,83.2685
2019-05-02T00:55:01.345Z,83.3234
2019-05-02T00:56:05.137Z,83.0655
2019-05-02T00:57:14.954Z,83.2074
2019-05-02T00:58:19.265Z,83.0762
2019-05-02T00:59:22.284Z,83.3356
2019-05-02T01:00:25.323Z,83.5340
2019-05-02T01:01:29.724Z,83.5477
2019-05-02T01:02:35.843Z,83.4089
2019-05-02T01:03:42.270Z,83.5889
2019-05-02T01:04:45.327Z,83.8087
2019-05-02T01:05:48.307Z,83.9994
2019-05-02T01:06:51.361Z,84.1459
2019-05-02T01:07:56.141Z,84.1794
2019-05-02T01:09:05.860Z,84.3702
2019-05-02T01:10:10.286Z,84.5716
2019-05-02T01:11:13.290Z,84.5167
2019-05-02T01:12:26.117Z,84.6128
2019-05-02T01:13:24.333Z,84.4129
2019-05-02T01:14:31.643Z,84.5762
2019-05-02T01:15:39.028Z,84.7364
2019-05-02T01:16:43.278Z,84.7227
2019-05-02T01:17:46.315Z,84.7883
2019-05-02T01:18:49.330Z,84.4495
2019-05-02T01:19:52.743Z,84.4999
2019-05-02T01:20:58.126Z,84.7700
2019-05-02T01:22:03.277Z,84.6677
2019-05-02T01:23:06.325Z,84.5899
2019-05-02T01:24:09.288Z,84.7639
2019-05-02T01:25:15.730Z,85.0477
2019-05-02T01:26:24.280Z,85.2232
2019-05-02T01:27:28.302Z,85.3635
2019-05-02T01:28:31.329Z,84.9470
2019-05-02T01:29:34.316Z,84.8890
2019-05-02T01:30:42.239Z,85.1301
2019-05-02T01:31:45.290Z,85.1820
2019-05-02T01:32:48.306Z,85.3727
2019-05-02T01:33:51.302Z,85.4246
2019-05-02T01:34:56.214Z,85.3773
2019-05-02T01:36:01.635Z,85.8167
2019-05-02T01:37:07.299Z,86.0426
2019-05-02T01:38:10.301Z,86.3111
2019-05-02T01:39:13.335Z,86.0914
2019-05-02T01:40:17.685Z,86.0746
2019-05-02T01:41:24.063Z,86.2882
2019-05-02T01:42:39.571Z,86.3218
2019-05-02T01:43:38.281Z,86.8254
2019-05-02T01:44:41.334Z,86.6789
2019-05-02T01:45:46.587Z,86.4485
2019-05-02T01:46:49.315Z,86.3447
2019-05-02T01:47:51.282Z,86.6087
2019-05-02T01:48:54.288Z,86.2058
2019-05-02T01:49:59.145Z,86.1753
2019-05-02T01:51:04.345Z,86.3722
2019-05-02T01:52:10.292Z,86.3676
2019-05-02T01:53:13.293Z,86.2989
2019-05-02T01:54:16.274Z,86.5629
2019-05-02T01:55:21.184Z,86.7231
2019-05-02T01:56:28.437Z,86.6224
2019-05-02T01:57:33.283Z,86.8696
2019-05-02T01:58:35.303Z,87.1443
2019-05-02T01:59:38.272Z,87.1031
2019-05-02T02:00:44.753Z,87.1138
2019-05-02T02:01:53.119Z,87.1168
2019-05-02T02:02:57.319Z,87.1626
2019-05-02T02:04:00.279Z,87.2496
2019-05-02T02:05:03.318Z,87.0710
2019-05-02T02:06:08.143Z,87.1595
2019-05-02T02:07:15.075Z,87.2450
2019-05-02T02:08:21.326Z,87.0665
2019-05-02T02:09:24.313Z,86.8208
2019-05-02T02:10:27.314Z,86.8711
2019-05-02T02:11:33.898Z,86.8238
2019-05-02T02:12:41.252Z,86.9810
2019-05-02T02:13:46.284Z,86.6972
2019-05-02T02:14:53.372Z,86.6636
2019-05-02T02:16:00.147Z,86.8513
2019-05-02T02:17:05.306Z,87.1000
2019-05-02T02:18:08.267Z,86.9581
2019-05-02T02:19:11.305Z,87.2129
2019-05-02T02:20:14.130Z,87.1946
2019-05-02T02:21:20.172Z,87.1046
2019-05-02T02:22:26.291Z,87.1366
2019-05-02T02:23:29.286Z,86.9520
2019-05-02T02:24:32.298Z,86.8238
2019-05-02T02:25:36.329Z,86.6789
2019-05-02T02:26:43.556Z,86.8116
2019-05-02T02:27:50.252Z,86.7369
2019-05-02T02:28:53.320Z,86.6056
2019-05-02T02:29:56.286Z,86.4179
2019-05-02T02:31:04.968Z,86.3539
2019-05-02T02:32:07.312Z,86.2699
2019-05-02T02:33:10.306Z,86.2516
2019-05-02T02:34:13.281Z,86.4729
2019-05-02T02:35:16.298Z,86.2486
2019-05-02T02:36:29.948Z,86.3767
2019-05-02T02:37:27.294Z,86.3905
2019-05-02T02:38:33.662Z,87.1809
2019-05-02T02:39:38.271Z,86.7094
2019-05-02T02:40:40.289Z,86.5949
2019-05-02T02:41:45.380Z,86.6194
2019-05-02T02:42:50.330Z,86.6926
2019-05-02T02:43:54.824Z,86.7735
2019-05-02T02:45:01.326Z,86.7704
2019-05-02T02:46:04.301Z,86.7414
2019-05-02T02:47:12.117Z,87.1138
2019-05-02T02:48:15.337Z,87.4647
2019-05-02T02:49:21.248Z,87.4052
2019-05-02T02:50:26.308Z,87.9194
2019-05-02T02:51:29.281Z,87.1580
2019-05-02T02:52:37.941Z,86.6865
2019-05-02T02:53:40.297Z,86.8849
2019-05-02T02:54:44.931Z,86.9429
2019-05-02T02:55:48.273Z,86.9429
2019-05-02T02:56:51.332Z,87.3793
2019-05-02T02:57:58.469Z,87.3457
2019-05-02T02:59:02.334Z,87.3884
2019-05-02T03:00:07.639Z,87.7318
2019-05-02T03:01:27.372Z,87.4067
2019-05-02T03:02:23.297Z,87.4739
2019-05-02T03:03:27.931Z,87.7302
2019-05-02T03:04:33.322Z,87.8325
2019-05-02T03:05:36.322Z,88.0247
2019-05-02T03:06:45.070Z,87.7409
2019-05-02T03:07:47.298Z,87.6616
2019-05-02T03:08:50.302Z,87.8584
2019-05-02T03:09:53.270Z,88.0140
2019-05-02T03:10:56.322Z,87.9744
2019-05-02T03:12:02.042Z,88.0293
2019-05-02T03:13:07.319Z,88.2155
2019-05-02T03:14:10.283Z,88.1788
2019-05-02T03:15:13.292Z,88.2475
2019-05-02T03:16:16.332Z,88.2216
2019-05-02T03:17:25.802Z,88.3207
2019-05-02T03:18:27.365Z,88.1987
2019-05-02T03:19:30.285Z,88.2307
2019-05-02T03:20:40.113Z,88.1285
2019-05-02T03:21:41.287Z,88.2567
2019-05-02T03:22:43.561Z,88.0751
2019-05-02T03:23:46.289Z,88.1285
2019-05-02T03:24:49.336Z,88.2261
2019-05-02T03:25:52.326Z,88.5679
2019-05-02T03:26:57.851Z,88.5237
2019-05-02T03:28:01.307Z,88.0934
2019-05-02T03:29:04.280Z,88.0323
2019-05-02T03:30:07.332Z,88.4855
2019-05-02T03:31:24.246Z,88.8350
2019-05-02T03:32:32.172Z,88.8380
2019-05-02T03:33:26.285Z,89.1127
2019-05-02T03:34:44.957Z,89.1814
2019-05-02T03:35:43.923Z,88.8014
2019-05-02T03:36:45.335Z,88.5512
2019-05-02T03:37:51.485Z,88.6152
2019-05-02T03:38:56.305Z,88.3665
2019-05-02T03:40:00.595Z,88.5191
2019-05-02T03:41:04.293Z,88.2307
2019-05-02T03:42:07.345Z,87.7531
2019-05-02T03:43:10.297Z,88.3864
2019-05-02T03:44:24.596Z,88.0293
2019-05-02T03:45:21.279Z,88.3772
2019-05-02T03:46:24.320Z,88.2033
2019-05-02T03:47:27.325Z,88.1529
2019-05-02T03:48:30.295Z,88.4215
2019-05-02T03:49:33.277Z,88.6091
2019-05-02T03:50:36.291Z,88.5786
2019-05-02T03:51:39.329Z,87.7318
2019-05-02T03:52:44.495Z,87.5898
2019-05-02T03:53:49.332Z,87.4784
2019-05-02T03:54:52.704Z,87.3182
2019-05-02T03:55:56.287Z,87.5624
2019-05-02T03:56:59.269Z,87.4937
2019-05-02T03:58:13.335Z,87.2770
2019-05-02T03:59:10.279Z,87.6814
2019-05-02T04:00:20.756Z,87.5120
2019-05-02T04:01:21.279Z,87.5151
2019-05-02T04:02:24.332Z,87.1168
2019-05-02T04:03:27.324Z,87.7577
2019-05-02T04:04:30.299Z,87.9088
2019-05-02T04:05:33.855Z,87.8859
2019-05-02T04:06:41.288Z,88.2292
2019-05-02T04:07:44.311Z,88.2704
2019-05-02T04:08:47.285Z,88.3894
2019-05-02T04:09:50.336Z,88.6427
2019-05-02T04:10:59.440Z,88.5451
2019-05-02T04:12:01.305Z,88.5237
2019-05-02T04:13:04.267Z,88.8151
2019-05-02T04:14:14.642Z,89.0089
2019-05-02T04:15:15.377Z,89.2821
2019-05-02T04:16:18.287Z,89.4102
2019-05-02T04:17:21.313Z,89.3477
2019-05-02T04:18:24.289Z,88.8975
2019-05-02T04:19:28.535Z,89.4148
2019-05-02T04:20:35.290Z,89.4438
2019-05-02T04:21:38.320Z,89.6956
2019-05-02T04:22:42.935Z,88.8472
2019-05-02T04:23:49.324Z,88.4688
2019-05-02T04:24:56.705Z,87.8645
2019-05-02T04:26:00.349Z,88.2841
2019-05-02T04:27:03.269Z,87.5792
2019-05-02T04:28:12.121Z,87.8080
2019-05-02T04:29:14.309Z,87.6707
2019-05-02T04:30:17.279Z,87.7867
2019-05-02T04:31:24.720Z,87.5349
2019-05-02T04:32:29.296Z,87.7165
2019-05-02T04:33:34.644Z,87.8141
2019-05-02T04:34:39.278Z,87.8492
2019-05-02T04:35:42.294Z,88.0095
2019-05-02T04:36:46.603Z,87.6768
2019-05-02T04:37:50.290Z,87.8553
2019-05-02T04:38:52.810Z,87.6402
2019-05-02T04:39:59.150Z,87.3777
2019-05-02T04:41:04.288Z,87.1733
2019-05-02T04:42:13.080Z,86.7369
2019-05-02T04:43:18.225Z,86.6697
2019-05-02T04:44:21.291Z,86.3996
2019-05-02T04:45:29.335Z,86.3844
2019-05-02T04:46:32.274Z,86.3767
2019-05-02T04:47:35.348Z,86.5187
2019-05-02T04:48:43.730Z,86.4485
2019-05-02T04:49:49.096Z,86.6468
2019-05-02T04:50:59.431Z,86.5003
2019-05-02T04:52:10.646Z,86.3386
2019-05-02T04:53:10.301Z,86.3722
2019-05-02T04:54:22.067Z,86.1646
2019-05-02T04:55:28.200Z,86.0975
2019-05-02T04:56:29.324Z,86.1387
2019-05-02T04:57:37.083Z,85.9541
2019-05-02T04:58:40.824Z,86.1967
2019-05-02T04:59:44.304Z,86.0639
2019-05-02T05:00:53.592Z,86.4088
2019-05-02T05:01:58.452Z,86.1372
2019-05-02T05:03:08.422Z,85.8412
2019-05-02T05:04:11.342Z,85.8900
2019-05-02T05:05:17.369Z,85.8076
2019-05-02T05:06:22.299Z,85.4414
2019-05-02T05:07:25.288Z,85.3361
2019-05-02T05:08:31.946Z,85.5756
2019-05-02T05:09:35.312Z,85.7862
2019-05-02T05:10:41.595Z,86.1830
2019-05-02T05:11:48.123Z,85.6931
2019-05-02T05:12:51.296Z,85.4093
2019-05-02T05:13:57.678Z,84.5991
2019-05-02T05:15:02.311Z,84.9348
2019-05-02T05:16:08.143Z,84.3839
2019-05-02T05:17:13.280Z,84.6006
2019-05-02T05:18:17.649Z,84.8829
2019-05-02T05:19:23.069Z,84.6143
2019-05-02T05:20:28.332Z,84.4312
2019-05-02T05:21:31.319Z,84.8646
2019-05-02T05:22:38.564Z,85.0385
2019-05-02T05:23:42.301Z,84.6784
2019-05-02T05:24:45.319Z,84.9348
2019-05-02T05:25:50.571Z,84.6357
2019-05-02T05:26:57.831Z,84.5487
2019-05-02T05:28:05.813Z,84.7730
2019-05-02T05:29:09.299Z,84.6326
2019-05-02T05:30:15.664Z,84.5533
2019-05-02T05:31:23.986Z,84.7822
2019-05-02T05:32:28.345Z,84.9424
2019-05-02T05:33:31.292Z,84.9928
2019-05-02T05:34:34.305Z,84.8524
2019-05-02T05:35:38.558Z,84.7364
2019-05-02T05:36:41.357Z,85.1087
2019-05-02T05:37:51.485Z,84.8020
2019-05-02T05:38:52.316Z,85.2125
2019-05-02T05:39:55.298Z,85.2583
2019-05-02T05:41:02.880Z,85.4551
2019-05-02T05:42:08.405Z,85.0614
2019-05-02T05:43:15.862Z,85.3681
2019-05-02T05:44:23.313Z,85.7130
2019-05-02T05:45:29.307Z,85.5619
2019-05-02T05:46:33.447Z,85.6977
2019-05-02T05:47:40.325Z,85.3925
2019-05-02T05:48:43.309Z,84.9210
2019-05-02T05:49:47.733Z,84.6830
2019-05-02T05:50:51.299Z,84.5624
2019-05-02T05:51:59.524Z,84.2008
2019-05-02T05:53:02.346Z,83.8544
2019-05-02T05:54:05.328Z,83.9719
2019-05-02T05:55:12.617Z,84.2802
2019-05-02T05:56:18.050Z,83.7125
2019-05-02T05:57:21.344Z,84.0452
2019-05-02T05:58:24.366Z,83.9445
2019-05-02T05:59:30.894Z,83.3722
2019-05-02T06:00:35.291Z,83.4409
2019-05-02T06:01:38.542Z,83.5203
2019-05-02T06:02:53.023Z,83.2944
2019-05-02T06:03:49.286Z,82.6047
2019-05-02T06:04:55.359Z,82.5116
2019-05-02T06:06:00.287Z,82.5864
2019-05-02T06:07:03.400Z,82.5635
2019-05-02T06:08:08.057Z,82.2751
2019-05-02T06:09:13.772Z,82.0005
2019-05-02T06:10:17.310Z,82.3301
2019-05-02T06:11:21.791Z,82.2065
2019-05-02T06:12:26.186Z,82.2461
2019-05-02T06:13:32.328Z,82.6581
2019-05-02T06:14:35.335Z,81.8311
2019-05-02T06:15:39.095Z,82.2019
2019-05-02T06:16:46.617Z,82.0768
2019-05-02T06:17:51.293Z,80.3754
2019-05-02T06:18:54.355Z,78.4573
2019-05-02T06:19:57.313Z,78.3612
2019-05-02T06:21:03.433Z,79.5727
2019-05-02T06:22:08.310Z,78.6938
2019-05-02T06:23:11.288Z,78.1216
2019-05-02T06:24:15.681Z,77.7600
2019-05-02T06:25:32.884Z,77.0321
2019-05-02T06:26:27.314Z,76.3546
2019-05-02T06:27:30.475Z,76.2554
2019-05-02T06:28:36.255Z,76.5469
2019-05-02T06:29:42.299Z,75.1553
2019-05-02T06:30:45.309Z,75.0774
2019-05-02T06:31:48.311Z,75.4406
2019-05-02T06:32:54.949Z,76.1456
2019-05-02T06:34:02.124Z,76.6796
2019-05-02T06:35:07.296Z,77.8103
2019-05-02T06:36:10.333Z,78.1735
2019-05-02T06:37:15.306Z,77.8698
2019-05-02T06:38:21.541Z,78.1582
2019-05-02T06:39:27.113Z,78.5290
2019-05-02T06:40:34.337Z,78.0316
2019-05-02T06:41:37.282Z,77.9034
2019-05-02T06:42:40.326Z,78.1582
2019-05-02T06:43:46.635Z,77.4166
2019-05-02T06:44:54.901Z,77.2488
2019-05-02T06:45:59.352Z,77.1054
2019-05-02T06:47:04.415Z,77.2900
2019-05-02T06:48:08.305Z,76.3684
2019-05-02T06:49:11.268Z,76.8460
2019-05-02T06:50:14.318Z,76.8505
2019-05-02T06:51:20.810Z,76.3684
2019-05-02T06:52:27.288Z,76.3287
2019-05-02T06:53:34.972Z,76.0449
2019-05-02T06:54:38.300Z,76.1135
2019-05-02T06:55:41.298Z,75.6191
2019-05-02T06:56:47.848Z,74.5418
2019-05-02T06:57:57.014Z,74.5327
2019-05-02T06:59:00.308Z,74.1009
2019-05-02T07:00:03.313Z,74.2107
2019-05-02T07:01:06.345Z,74.2168
2019-05-02T07:02:09.347Z,74.2748
2019-05-02T07:03:12.262Z,73.9361
2019-05-02T07:04:17.541Z,73.8949
2019-05-02T07:05:27.221Z,74.1390
2019-05-02T07:06:34.818Z,73.8277
2019-05-02T07:07:38.399Z,73.7942
2019-05-02T07:08:41.333Z,73.7820
2019-05-02T07:09:44.317Z,72.5551
2019-05-02T07:10:47.315Z,72.7550
2019-05-02T07:11:56.932Z,73.2219
2019-05-02T07:13:10.117Z,72.0470
2019-05-02T07:14:12.876Z,72.1019
2019-05-02T07:15:14.339Z,71.6197
2019-05-02T07:16:37.288Z,72.3980
2019-05-02T07:17:26.575Z,71.8761
2019-05-02T07:18:33.351Z,71.0887
2019-05-02T07:19:36.304Z,71.4366
2019-05-02T07:20:40.644Z,70.7973
2019-05-02T07:21:45.308Z,71.1345
2019-05-02T07:22:48.288Z,70.7881
2019-05-02T07:23:53.785Z,70.1595
2019-05-02T07:25:01.870Z,69.3599
2019-05-02T07:26:06.306Z,69.2454
2019-05-02T07:27:09.330Z,68.7495
2019-05-02T07:28:11.297Z,69.3782
2019-05-02T07:29:17.016Z,68.3558
2019-05-02T07:30:22.302Z,68.0049
2019-05-02T07:31:25.311Z,68.6580
2019-05-02T07:32:28.309Z,68.1651
2019-05-02T07:33:32.416Z,67.8630
2019-05-02T07:34:39.372Z,67.0756
2019-05-02T07:35:42.331Z,67.8080
2019-05-02T07:36:45.316Z,67.1565
2019-05-02T07:37:48.824Z,66.9749
2019-05-02T07:38:57.528Z,67.4861
2019-05-02T07:40:01.320Z,67.1260
2019-05-02T07:41:04.325Z,66.8147
2019-05-02T07:42:07.883Z,66.9780
2019-05-02T07:43:13.536Z,66.4164
2019-05-02T07:44:19.292Z,66.6346
2019-05-02T07:45:22.318Z,66.3615
2019-05-02T07:46:25.387Z,66.3417
2019-05-02T07:47:28.938Z,66.3829
2019-05-02T07:48:33.394Z,65.5314
2019-05-02T07:49:36.275Z,65.2247
2019-05-02T07:50:41.168Z,65.6687
2019-05-02T07:51:47.309Z,64.7578
2019-05-02T07:52:50.351Z,65.3574
2019-05-02T07:53:55.513Z,64.9195
2019-05-02T07:55:01.115Z,64.7303
2019-05-02T07:56:05.329Z,64.4892
2019-05-02T07:57:08.311Z,63.2807
2019-05-02T07:58:11.322Z,63.2166
2019-05-02T07:59:13.288Z,63.5599
2019-05-02T08:00:16.310Z,62.8031
2019-05-02T08:01:19.295Z,62.4842
2019-05-02T08:02:25.046Z,62.6215
2019-05-02T08:03:33.294Z,62.9923
2019-05-02T08:04:37.322Z,61.6129
2019-05-02T08:05:40.320Z,61.9165
2019-05-02T08:06:44.624Z,61.7609
2019-05-02T08:07:53.362Z,60.9918
2019-05-02T08:09:01.608Z,62.0661
2019-05-02T08:10:05.314Z,61.5488
2019-05-02T08:11:08.308Z,61.8112
2019-05-02T08:12:11.315Z,61.5305
2019-05-02T08:13:17.585Z,60.9781
2019-05-02T08:14:22.329Z,61.3306
2019-05-02T08:15:25.293Z,60.8804
2019-05-02T08:16:28.602Z,61.3260
2019-05-02T08:17:32.374Z,60.8225
2019-05-02T08:18:35.330Z,60.5432
2019-05-02T08:19:41.669Z,60.9003
2019-05-02T08:20:46.303Z,60.7797
2019-05-02T08:21:49.311Z,60.9644
2019-05-02T08:22:52.296Z,61.6831
2019-05-02T08:23:57.227Z,61.9333
2019-05-02T08:25:03.284Z,60.4196
2019-05-02T08:26:06.352Z,59.8566
2019-05-02T08:27:09.304Z,58.9960
2019-05-02T08:28:15.814Z,58.8540
2019-05-02T08:29:23.441Z,58.9593
2019-05-02T08:30:28.311Z,58.8495
2019-05-02T08:31:31.320Z,58.4329
2019-05-02T08:32:34.312Z,57.6852
2019-05-02T08:33:38.382Z,58.0056
2019-05-02T08:34:41.316Z,56.5011
2019-05-02T08:35:44.337Z,55.6451
2019-05-02T08:36:47.290Z,58.6191
2019-05-02T08:37:50.309Z,57.4853
2019-05-02T08:38:54.056Z,56.6140
2019-05-02T08:39:58.363Z,57.9278
2019-05-02T08:41:01.311Z,57.3007
2019-05-02T08:42:04.305Z,56.2997
2019-05-02T08:43:09.290Z,56.2982
2019-05-02T08:44:16.694Z,56.6567
2019-05-02T08:45:20.329Z,56.7941
2019-05-02T08:46:23.322Z,55.7214
2019-05-02T08:47:28.685Z,55.6023
2019-05-02T08:48:36.556Z,55.9014
2019-05-02T08:49:42.589Z,55.0088
2019-05-02T08:50:44.387Z,55.2148
2019-05-02T08:51:47.335Z,52.2393
2019-05-02T08:52:50.275Z,52.5856
2019-05-02T08:53:56.726Z,51.2459
2019-05-02T08:55:04.395Z,52.2927
2019-05-02T08:56:09.349Z,51.6625
2019-05-02T08:57:12.385Z,51.6899
2019-05-02T08:58:15.975Z,51.9585
2019-05-02T08:59:19.724Z,51.8822
2019-05-02T09:00:23.292Z,51.9966
2019-05-02T09:01:34.823Z,51.6243
2019-05-02T09:02:41.148Z,51.9539
2019-05-02T09:03:54.629Z,52.0150
2019-05-02T09:04:58.343Z,52.7062
2019-05-02T09:06:05.685Z,52.0043
2019-05-02T09:07:06.387Z,53.0266
2019-05-02T09:08:14.171Z,52.1981
2019-05-02T09:09:17.309Z,52.8664
2019-05-02T09:10:20.308Z,52.9992
2019-05-02T09:11:23.339Z,52.8893
2019-05-02T09:12:26.346Z,52.7932
2019-05-02T09:13:29.674Z,52.0745
2019-05-02T09:14:33.305Z,52.4163
2019-05-02T09:15:40.383Z,51.9768
2019-05-02T09:16:44.286Z,52.0455
2019-05-02T09:17:54.422Z,52.2240
2019-05-02T09:18:55.394Z,53.2128
2019-05-02T09:20:02.278Z,52.5628
2019-05-02T09:21:06.322Z,52.3842
2019-05-02T09:22:13.313Z,53.2631
2019-05-02T09:23:17.302Z,52.2835
2019-05-02T09:24:23.275Z,52.7962
2019-05-02T09:25:27.328Z,52.5643
2019-05-02T09:26:36.021Z,53.5607
2019-05-02T09:27:38.334Z,53.5927
2019-05-02T09:28:42.230Z,53.1853
2019-05-02T09:29:45.994Z,53.0220
2019-05-02T09:30:49.296Z,53.1899
2019-05-02T09:31:52.661Z,52.6970
2019-05-02T09:32:57.098Z,52.7108
2019-05-02T09:34:04.326Z,52.9900
2019-05-02T09:35:09.357Z,52.8054
2019-05-02T09:36:12.358Z,53.8033
2019-05-02T09:37:15.329Z,53.6080
2019-05-02T09:38:17.305Z,53.3913
2019-05-02T09:39:22.501Z,53.2402
2019-05-02T09:40:25.355Z,53.5286
2019-05-02T09:41:34.423Z,52.9854
2019-05-02T09:42:36.299Z,53.6492
2019-05-02T09:43:39.375Z,54.1192
2019-05-02T09:44:42.613Z,53.4707
2019-05-02T09:45:45.309Z,53.2036
2019-05-02T09:46:53.014Z,53.3196
2019-05-02T09:48:03.986Z,52.8466
2019-05-02T09:49:10.656Z,53.5332
2019-05-02T09:50:12.846Z,52.8618
2019-05-02T09:51:17.383Z,53.0571
2019-05-02T09:52:22.136Z,52.8145
2019-05-02T09:53:25.632Z,53.3181
2019-05-02T09:54:29.290Z,52.1706
2019-05-02T09:55:32.287Z,51.5923
2019-05-02T09:56:35.301Z,51.6472
2019-05-02T09:57:38.322Z,51.4504
2019-05-02T09:58:42.000Z,52.4483
2019-05-02T09:59:50.624Z,51.6060
2019-05-02T10:00:53.342Z,50.7408
2019-05-02T10:01:56.304Z,51.4611
2019-05-02T10:02:59.348Z,51.6701
2019-05-02T10:04:02.447Z,52.1782
2019-05-02T10:05:05.346Z,52.2194
2019-05-02T10:06:12.653Z,52.8008
2019-05-02T10:07:16.384Z,53.8277
2019-05-02T10:08:19.334Z,53.9223
2019-05-02T10:09:25.719Z,53.9040
2019-05-02T10:10:32.220Z,53.3501
2019-05-02T10:11:35.335Z,53.0312
2019-05-02T10:12:38.363Z,53.2769
2019-05-02T10:13:42.422Z,52.8756
2019-05-02T10:14:46.340Z,54.1253
2019-05-02T10:15:49.324Z,52.8527
2019-05-02T10:16:52.935Z,53.6263
2019-05-02T10:18:07.937Z,52.7840
2019-05-02T10:19:09.434Z,51.9356
2019-05-02T10:20:13.320Z,52.2530
2019-05-02T10:21:17.218Z,52.5505
2019-05-02T10:22:20.345Z,51.9509
2019-05-02T10:23:23.582Z,51.6014
2019-05-02T10:24:27.307Z,50.9926
2019-05-02T10:25:38.326Z,49.8909
2019-05-02T10:26:38.311Z,48.5679
2019-05-02T10:27:46.068Z,49.1066
2019-05-02T10:28:50.751Z,48.8289
2019-05-02T10:29:57.253Z,49.2454
2019-05-02T10:31:02.077Z,48.8045
2019-05-02T10:32:07.657Z,47.1565
2019-05-02T10:33:12.379Z,47.5792
2019-05-02T10:34:17.663Z,47.5792
2019-05-02T10:35:22.903Z,47.6417
2019-05-02T10:36:26.309Z,47.0344
2019-05-02T10:37:30.619Z,47.3075
2019-05-02T10:38:37.296Z,46.8360
2019-05-02T10:39:42.230Z,47.3732
2019-05-02T10:40:48.429Z,47.0054
2019-05-02T10:41:53.315Z,47.4830
2019-05-02T10:42:56.331Z,47.8309
2019-05-02T10:43:59.668Z,47.0695
2019-05-02T10:45:07.483Z,47.0069
2019-05-02T10:46:12.597Z,47.0436
2019-05-02T10:47:15.298Z,45.8015
2019-05-02T10:48:27.459Z,45.0187
2019-05-02T10:49:26.309Z,45.4139
2019-05-02T10:50:28.369Z,46.5217
2019-05-02T10:51:31.691Z,46.4210
2019-05-02T10:52:35.318Z,46.8742
2019-05-02T10:53:38.273Z,46.7399
2019-05-02T10:54:42.178Z,47.0390
2019-05-02T10:55:45.321Z,46.2058
2019-05-02T10:56:48.323Z,46.8055
2019-05-02T10:57:52.698Z,46.9551
2019-05-02T10:58:56.329Z,50.5547
2019-05-02T10:59:59.318Z,46.9322
2019-05-02T11:01:02.365Z,47.4098
2019-05-02T11:02:05.301Z,47.5975
2019-05-02T11:03:08.310Z,46.5797
2019-05-02T11:04:12.865Z,46.0945
2019-05-02T11:05:16.970Z,46.3554
2019-05-02T11:06:24.356Z,47.0710
2019-05-02T11:07:27.312Z,46.5858
2019-05-02T11:08:31.941Z,45.8671
2019-05-02T11:09:35.282Z,46.3157
2019-05-02T11:10:38.330Z,46.4256
2019-05-02T11:11:42.374Z,46.0914
2019-05-02T11:12:47.015Z,46.4515
2019-05-02T11:13:53.422Z,46.9322
2019-05-02T11:14:58.320Z,45.7832
2019-05-02T11:16:01.684Z,46.6178
2019-05-02T11:17:09.087Z,47.0008
2019-05-02T11:18:13.341Z,46.7445
2019-05-02T11:19:16.281Z,46.5583
2019-05-02T11:20:19.302Z,46.7094
2019-05-02T11:21:22.937Z,46.0441
2019-05-02T11:22:26.329Z,44.8554
2019-05-02T11:23:29.371Z,45.1057
2019-05-02T11:24:32.327Z,45.5222
2019-05-02T11:25:35.295Z,46.1585
2019-05-02T11:26:38.315Z,44.9134
2019-05-02T11:27:41.894Z,46.4057
2019-05-02T11:28:44.317Z,46.8132
2019-05-02T11:29:47.323Z,46.6453
2019-05-02T11:30:52.307Z,46.1418
2019-05-02T11:31:55.294Z,45.7481
2019-05-02T11:32:58.352Z,46.2196
2019-05-02T11:34:01.932Z,45.9129
2019-05-02T11:35:05.283Z,44.5655
2019-05-02T11:36:08.321Z,44.9317
2019-05-02T11:37:12.054Z,45.4688
2019-05-02T11:38:15.840Z,45.4185
2019-05-02T11:39:27.180Z,45.9907
2019-05-02T11:40:27.312Z,46.2867
2019-05-02T11:41:31.797Z,45.1667
2019-05-02T11:42:35.291Z,45.1987
2019-05-02T11:43:41.414Z,45.2445
2019-05-02T11:44:45.337Z,45.5451
2019-05-02T11:45:48.322Z,46.3066
2019-05-02T11:46:52.089Z,47.2450
2019-05-02T11:47:56.102Z,45.0706
2019-05-02T11:49:03.355Z,45.4627
2019-05-02T11:50:06.337Z,44.8920
2019-05-02T11:51:14.884Z,45.6748
2019-05-02T11:52:17.316Z,45.3956
2019-05-02T11:53:27.000Z,45.0507
2019-05-02T11:54:29.352Z,44.7410
2019-05-02T11:55:32.330Z,44.4556
2019-05-02T11:56:35.315Z,44.6021
2019-05-02T11:57:37.315Z,44.4938
2019-05-02T11:58:47.863Z,45.8488
2019-05-02T11:59:48.367Z,45.8930
2019-05-02T12:00:52.288Z,45.4673
2019-05-02T12:01:59.437Z,46.3554
2019-05-02T12:03:03.308Z,45.8396
2019-05-02T12:04:11.711Z,46.3569
2019-05-02T12:05:14.320Z,46.2974
2019-05-02T12:06:19.617Z,45.9800
2019-05-02T12:07:23.324Z,45.5772
2019-05-02T12:08:26.318Z,45.7664
2019-05-02T12:09:29.298Z,45.9770
2019-05-02T12:10:36.524Z,45.8442
2019-05-02T12:11:41.820Z,46.0960
2019-05-02T12:12:45.319Z,46.2593
2019-05-02T12:13:52.909Z,45.8885
2019-05-02T12:14:58.318Z,46.6712
2019-05-02T12:16:02.693Z,47.0939
2019-05-02T12:17:05.393Z,47.1443
2019-05-02T12:18:08.291Z,47.2755
2019-05-02T12:19:14.351Z,47.5517
2019-05-02T12:20:18.335Z,49.0654
2019-05-02T12:21:22.895Z,50.6996
2019-05-02T12:22:26.307Z,52.0180
2019-05-02T12:23:29.313Z,55.1171
2019-05-02T12:24:31.873Z,56.5866
2019-05-02T12:25:35.325Z,57.6989
2019-05-02T12:26:38.331Z,57.0809
2019-05-02T12:27:42.463Z,57.4762
2019-05-02T12:28:45.288Z,59.0967
2019-05-02T12:29:57.857Z,60.1358
2019-05-02T12:30:58.297Z,59.5163
2019-05-02T12:32:02.598Z,60.9232
2019-05-02T12:33:06.312Z,60.1129
2019-05-02T12:34:09.277Z,60.7889
2019-05-02T12:35:12.318Z,60.5463
2019-05-02T12:36:15.280Z,61.2985
2019-05-02T12:37:18.379Z,61.4816
2019-05-02T12:38:23.081Z,61.1841
2019-05-02T12:39:26.322Z,61.8189
2019-05-02T12:40:29.325Z,61.7151
2019-05-02T12:41:33.082Z,61.8067
2019-05-02T12:42:36.342Z,61.8433
2019-05-02T12:43:39.318Z,61.8280
2019-05-02T12:44:42.700Z,62.0157
2019-05-02T12:45:45.326Z,62.7863
2019-05-02T12:46:48.323Z,63.9750
2019-05-02T12:47:52.304Z,64.7852
2019-05-02T12:48:55.294Z,67.3228
2019-05-02T12:49:58.344Z,67.0878
2019-05-02T12:51:01.997Z,66.8544
2019-05-02T12:52:05.339Z,66.2226
2019-05-02T12:53:08.317Z,67.3533
2019-05-02T12:54:12.370Z,68.2460
2019-05-02T12:55:15.277Z,68.2231
2019-05-02T12:56:18.304Z,68.7739
2019-05-02T12:57:21.978Z,69.1722
2019-05-02T12:58:25.341Z,68.7449
2019-05-02T12:59:28.300Z,69.6284
2019-05-02T13:00:31.988Z,69.1478